createdAt,value
2023-04-10T00:00:56.975Z,9.88
2023-04-10T00:03:25.152Z,9.78
2023-04-10T00:05:54.758Z,9.75
2023-04-10T00:08:24.181Z,9.86
2023-04-10T00:10:51.922Z,9.83
2023-04-10T00:13:19.640Z,9.97
2023-04-10T00:15:47.396Z,10.00
2023-04-10T00:18:15.438Z,9.82
2023-04-10T00:20:43.809Z,10.02
2023-04-10T00:23:11.502Z,10.08
2023-04-10T00:25:40.617Z,10.15
2023-04-10T00:28:08.386Z,10.15
2023-04-10T00:30:36.125Z,10.09
2023-04-10T00:33:03.991Z,9.99
2023-04-10T00:35:31.845Z,10.01
2023-04-10T00:37:59.624Z,9.92
2023-04-10T00:40:27.476Z,9.82
2023-04-10T00:42:56.510Z,9.95
2023-04-10T00:45:24.398Z,9.85
2023-04-10T00:47:52.763Z,9.80
2023-04-10T00:50:21.132Z,9.77
2023-04-10T00:52:49.336Z,9.78
2023-04-10T00:55:17.166Z,9.90
2023-04-10T00:57:47.113Z,9.88
2023-04-10T01:00:17.482Z,9.91
2023-04-10T01:02:45.549Z,9.82
2023-04-10T01:05:13.887Z,9.66
2023-04-10T01:07:53.789Z,9.68
2023-04-10T01:10:28.540Z,9.57
2023-04-10T01:13:05.574Z,9.62
2023-04-10T01:15:40.199Z,9.60
2023-04-10T01:18:12.540Z,9.51
2023-04-10T01:20:41.301Z,9.53
2023-04-10T01:23:32.543Z,9.55
2023-04-10T01:26:01.197Z,9.47
2023-04-10T01:28:44.569Z,9.48
2023-04-10T01:31:15.595Z,9.54
2023-04-10T01:33:47.712Z,9.45
2023-04-10T01:36:21.889Z,9.49
2023-04-10T01:38:50.907Z,9.46
2023-04-10T01:41:19.971Z,9.45
2023-04-10T01:43:50.648Z,9.42
2023-04-10T01:46:20.573Z,9.40
2023-04-10T01:48:48.621Z,9.42
2023-04-10T01:51:17.091Z,9.39
2023-04-10T01:53:46.057Z,9.26
2023-04-10T01:56:14.195Z,9.32
2023-04-10T01:58:42.107Z,9.31
2023-04-10T02:01:22.515Z,9.35
2023-04-10T02:03:56.904Z,9.24
2023-04-10T02:06:31.988Z,9.32
2023-04-10T02:09:03.885Z,9.26
2023-04-10T02:11:37.129Z,9.29
2023-04-10T02:14:07.051Z,9.33
2023-04-10T02:16:37.921Z,9.32
2023-04-10T02:19:06.964Z,9.38
2023-04-10T02:21:35.221Z,9.28
2023-04-10T02:24:02.906Z,9.28
2023-04-10T02:26:30.765Z,9.30
2023-04-10T02:28:58.432Z,9.29
2023-04-10T02:31:26.144Z,9.27
2023-04-10T02:33:55.512Z,9.09
2023-04-10T02:36:23.336Z,9.16
2023-04-10T02:38:51.117Z,9.08
2023-04-10T02:41:18.831Z,9.15
2023-04-10T02:43:46.577Z,9.11
2023-04-10T02:46:14.238Z,9.09
2023-04-10T02:48:41.985Z,9.15
2023-04-10T02:51:11.043Z,9.15
2023-04-10T02:53:38.766Z,9.16
2023-04-10T02:56:08.137Z,9.15
2023-04-10T02:58:36.123Z,9.12
2023-04-10T03:01:04.046Z,9.08
2023-04-10T03:03:31.811Z,9.30
2023-04-10T03:05:59.586Z,9.22
2023-04-10T03:08:30.184Z,9.29
2023-04-10T03:10:57.897Z,9.27
2023-04-10T03:13:26.037Z,9.32
2023-04-10T03:15:53.849Z,9.47
2023-04-10T03:18:21.547Z,9.44
2023-04-10T03:20:49.960Z,9.40
2023-04-10T03:23:17.696Z,9.38
2023-04-10T03:25:50.931Z,9.46
2023-04-10T03:28:18.695Z,9.53
2023-04-10T03:30:46.450Z,9.57
2023-04-10T03:33:14.198Z,9.48
2023-04-10T03:35:42.056Z,9.46
2023-04-10T03:38:09.861Z,9.48
2023-04-10T03:40:37.770Z,9.54
2023-04-10T03:43:06.877Z,9.44
2023-04-10T03:45:34.660Z,9.18
2023-04-10T03:48:02.389Z,9.07
2023-04-10T03:50:30.498Z,9.02
2023-04-10T03:52:58.230Z,9.00
2023-04-10T03:55:25.921Z,9.05
2023-04-10T03:57:53.677Z,9.05
2023-04-10T04:00:22.851Z,9.04
2023-04-10T04:02:51.912Z,8.93
2023-04-10T04:05:20.043Z,9.13
2023-04-10T04:07:48.122Z,9.18
2023-04-10T04:10:15.986Z,9.31
2023-04-10T04:12:43.778Z,9.05
2023-04-10T04:15:12.090Z,9.05
2023-04-10T04:17:41.215Z,9.01
2023-04-10T04:20:09.988Z,9.06
2023-04-10T04:22:37.674Z,8.96
2023-04-10T04:25:08.912Z,9.06
2023-04-10T04:27:36.680Z,8.94
2023-04-10T04:30:04.707Z,8.96
2023-04-10T04:32:32.501Z,8.86
2023-04-10T04:35:01.623Z,8.83
2023-04-10T04:37:29.434Z,8.78
2023-04-10T04:39:57.080Z,8.80
2023-04-10T04:42:25.021Z,8.74
2023-04-10T04:44:52.918Z,8.84
2023-04-10T04:47:20.647Z,8.98
2023-04-10T04:49:48.424Z,8.88
2023-04-10T04:52:17.482Z,9.02
2023-04-10T04:54:45.460Z,9.05
2023-04-10T04:57:13.135Z,8.98
2023-04-10T04:59:40.821Z,9.27
2023-04-10T05:02:08.569Z,9.18
2023-04-10T05:04:36.326Z,9.17
2023-04-10T05:07:04.003Z,9.08
2023-04-10T05:09:33.029Z,8.86
2023-04-10T05:12:00.739Z,8.92
2023-04-10T05:14:28.426Z,9.02
2023-04-10T05:16:56.219Z,9.16
2023-04-10T05:19:23.926Z,9.41
2023-04-10T05:21:51.624Z,9.52
2023-04-10T05:24:19.290Z,9.41
2023-04-10T05:26:48.550Z,10.00
2023-04-10T05:29:16.248Z,10.18
2023-04-10T05:31:43.974Z,9.94
2023-04-10T05:34:11.839Z,10.08
2023-04-10T05:36:39.518Z,9.68
2023-04-10T05:39:07.177Z,9.79
2023-04-10T05:41:34.974Z,10.00
2023-04-10T05:44:04.056Z,10.18
2023-04-10T05:46:31.877Z,10.35
2023-04-10T05:48:59.680Z,10.53
2023-04-10T05:51:27.373Z,10.58
2023-04-10T05:53:55.199Z,10.41
2023-04-10T05:56:22.899Z,10.26
2023-04-10T05:58:50.654Z,10.53
2023-04-10T06:01:19.759Z,10.63
2023-04-10T06:03:47.792Z,10.72
2023-04-10T06:06:15.843Z,10.41
2023-04-10T06:08:43.518Z,10.52
2023-04-10T06:11:11.439Z,10.93
2023-04-10T06:13:39.194Z,11.28
2023-04-10T06:16:07.688Z,11.36
2023-04-10T06:18:36.898Z,11.98
2023-04-10T06:21:04.890Z,11.99
2023-04-10T06:23:32.629Z,12.38
2023-04-10T06:26:01.375Z,12.75
2023-04-10T06:28:29.050Z,12.86
2023-04-10T06:30:57.549Z,13.16
2023-04-10T06:33:26.394Z,13.24
2023-04-10T06:35:56.057Z,13.06
2023-04-10T06:38:23.803Z,13.23
2023-04-10T06:40:51.540Z,13.36
2023-04-10T06:43:19.252Z,13.58
2023-04-10T06:45:47.063Z,13.62
2023-04-10T06:48:15.141Z,13.88
2023-04-10T06:50:42.929Z,13.92
2023-04-10T06:53:12.103Z,14.02
2023-04-10T06:55:40.024Z,13.90
2023-04-10T06:58:07.730Z,13.86
2023-04-10T07:00:35.500Z,13.81
2023-04-10T07:03:03.231Z,13.73
2023-04-10T07:05:31.112Z,13.69
2023-04-10T07:07:58.811Z,13.60
2023-04-10T07:10:27.930Z,13.76
2023-04-10T07:12:57.220Z,13.64
2023-04-10T07:15:24.889Z,13.32
2023-04-10T07:17:52.828Z,13.34
2023-04-10T07:20:20.698Z,13.13
2023-04-10T07:22:48.463Z,13.74
2023-04-10T07:25:16.622Z,14.16
2023-04-10T07:27:45.690Z,14.28
2023-04-10T07:30:13.971Z,14.32
2023-04-10T07:32:42.379Z,14.36
2023-04-10T07:35:11.036Z,14.46
2023-04-10T07:37:39.757Z,14.34
2023-04-10T07:40:09.063Z,14.31
2023-04-10T07:42:36.922Z,14.09
2023-04-10T07:45:09.710Z,14.47
2023-04-10T07:47:37.444Z,14.63
2023-04-10T07:50:06.443Z,14.83
2023-04-10T07:52:34.133Z,14.98
2023-04-10T07:55:02.761Z,14.86
2023-04-10T07:57:32.170Z,14.87
2023-04-10T08:00:00.034Z,15.13
2023-04-10T08:02:29.305Z,15.13
2023-04-10T08:04:57.957Z,14.88
2023-04-10T08:07:26.000Z,14.84
2023-04-10T08:09:53.869Z,15.20
2023-04-10T08:12:21.625Z,15.14
2023-04-10T08:14:51.712Z,15.40
2023-04-10T08:17:19.672Z,15.66
2023-04-10T08:19:48.756Z,15.27
2023-04-10T08:22:16.568Z,15.29
2023-04-10T08:24:44.498Z,15.51
2023-04-10T08:27:12.363Z,15.76
2023-04-10T08:29:40.058Z,15.89
2023-04-10T08:32:07.764Z,16.28
2023-04-10T08:34:35.540Z,16.22
2023-04-10T08:37:10.589Z,16.59
2023-04-10T08:39:39.805Z,16.75
2023-04-10T08:42:07.780Z,17.32
2023-04-10T08:44:37.164Z,17.21
2023-04-10T08:47:05.150Z,16.97
2023-04-10T08:49:36.394Z,17.15
2023-04-10T08:52:08.103Z,17.36
2023-04-10T08:54:39.464Z,17.29
2023-04-10T08:57:09.811Z,17.74
2023-04-10T08:59:38.658Z,17.46
2023-04-10T09:02:07.407Z,17.96
2023-04-10T09:04:35.557Z,17.87
2023-04-10T09:07:03.356Z,17.91
2023-04-10T09:09:33.250Z,17.90
2023-04-10T09:12:02.634Z,18.15
2023-04-10T09:14:31.837Z,17.91
2023-04-10T09:17:13.081Z,17.79
2023-04-10T09:19:41.020Z,17.84
2023-04-10T09:22:09.008Z,17.93
2023-04-10T09:24:39.107Z,18.08
2023-04-10T09:27:07.231Z,18.22
2023-04-10T09:29:45.887Z,18.31
2023-04-10T09:32:13.757Z,18.55
2023-04-10T09:34:54.896Z,18.51
2023-04-10T09:37:22.849Z,18.61
2023-04-10T09:39:51.879Z,18.68
2023-04-10T09:42:31.411Z,19.02
2023-04-10T09:44:59.568Z,18.72
2023-04-10T09:47:27.418Z,18.39
2023-04-10T09:49:56.477Z,18.58
2023-04-10T09:52:26.388Z,19.21
2023-04-10T09:54:56.382Z,19.48
2023-04-10T09:57:25.936Z,19.25
2023-04-10T09:59:55.048Z,19.24
2023-04-10T10:02:24.097Z,19.17
2023-04-10T10:04:53.275Z,19.27
2023-04-10T10:07:22.375Z,19.33
2023-04-10T10:09:51.687Z,19.50
2023-04-10T10:12:24.938Z,19.15
2023-04-10T10:14:58.831Z,19.28
2023-04-10T10:17:31.581Z,19.07
2023-04-10T10:20:02.796Z,19.05
2023-04-10T10:22:30.643Z,19.32
2023-04-10T10:24:59.955Z,19.30
2023-04-10T10:27:30.036Z,18.95
2023-04-10T10:30:02.869Z,19.28
2023-04-10T10:32:33.324Z,19.43
2023-04-10T10:35:02.287Z,19.97
2023-04-10T10:37:30.644Z,19.83
2023-04-10T10:40:00.701Z,19.59
2023-04-10T10:42:35.724Z,20.22
2023-04-10T10:45:10.440Z,20.01
2023-04-10T10:47:42.081Z,20.62
2023-04-10T10:50:10.434Z,20.99
2023-04-10T10:52:49.716Z,20.73
2023-04-10T10:55:34.890Z,20.74
2023-04-10T10:58:06.202Z,20.39
2023-04-10T11:01:10.095Z,20.53
2023-04-10T11:03:38.590Z,20.88
2023-04-10T11:06:08.461Z,20.74
2023-04-10T11:08:45.837Z,20.59
2023-04-10T11:11:16.670Z,20.94
2023-04-10T11:14:17.973Z,20.95
2023-04-10T11:16:49.547Z,21.07
2023-04-10T11:19:23.680Z,21.01
2023-04-10T11:22:08.966Z,21.14
2023-04-10T11:25:00.047Z,21.15
2023-04-10T11:27:49.599Z,21.59
2023-04-10T11:30:29.380Z,21.41
2023-04-10T11:32:57.434Z,21.48
2023-04-10T11:35:25.286Z,21.66
2023-04-10T11:37:52.993Z,21.56
2023-04-10T11:40:21.181Z,21.38
2023-04-10T11:42:48.890Z,21.07
2023-04-10T11:45:30.871Z,21.09
2023-04-10T11:47:58.639Z,21.09
2023-04-10T11:50:32.237Z,21.50
2023-04-10T11:52:59.926Z,21.51
2023-04-10T11:55:38.337Z,21.47
2023-04-10T11:58:06.697Z,21.78
2023-04-10T12:00:35.761Z,22.14
2023-04-10T12:03:03.662Z,22.80
2023-04-10T12:05:46.671Z,22.88
2023-04-10T12:08:14.410Z,22.60
2023-04-10T12:10:50.987Z,22.03
2023-04-10T12:13:25.968Z,21.29
2023-04-10T12:15:55.316Z,21.55
2023-04-10T12:18:23.621Z,21.55
2023-04-10T12:20:56.201Z,21.38
2023-04-10T12:23:24.584Z,21.34
2023-04-10T12:25:53.200Z,21.92
2023-04-10T12:28:22.229Z,21.42
2023-04-10T12:30:52.791Z,21.23
2023-04-10T12:33:25.914Z,21.13
2023-04-10T12:35:54.298Z,21.00
2023-04-10T12:38:42.007Z,21.04
2023-04-10T12:41:11.203Z,21.27
2023-04-10T12:43:39.964Z,21.32
2023-04-10T12:46:09.439Z,21.19
2023-04-10T12:48:38.548Z,21.45
2023-04-10T12:51:06.523Z,21.06
2023-04-10T12:53:44.625Z,21.21
2023-04-10T12:56:12.432Z,21.17
2023-04-10T12:58:42.401Z,21.20
2023-04-10T13:01:10.680Z,20.70
2023-04-10T13:03:39.958Z,20.99
2023-04-10T13:06:08.592Z,20.86
2023-04-10T13:08:36.491Z,21.31
2023-04-10T13:11:04.198Z,21.29
2023-04-10T13:13:32.806Z,21.47
2023-04-10T13:16:00.768Z,21.26
2023-04-10T13:18:28.564Z,21.18
2023-04-10T13:20:57.635Z,21.17
2023-04-10T13:23:25.284Z,21.15
2023-04-10T13:25:53.549Z,21.50
2023-04-10T13:28:21.560Z,21.58
2023-04-10T13:30:49.255Z,21.74
2023-04-10T13:33:16.979Z,21.90
2023-04-10T13:35:44.708Z,22.45
2023-04-10T13:38:13.760Z,22.18
2023-04-10T13:40:41.421Z,22.29
2023-04-10T13:43:09.101Z,22.11
2023-04-10T13:45:36.803Z,21.89
2023-04-10T13:48:07.212Z,21.31
2023-04-10T13:50:35.206Z,21.71
2023-04-10T13:53:02.985Z,21.56
2023-04-10T13:55:32.098Z,21.65
2023-04-10T13:57:59.826Z,21.63
2023-04-10T14:00:27.742Z,21.31
2023-04-10T14:02:55.615Z,20.98
2023-04-10T14:05:23.509Z,20.74
2023-04-10T14:07:56.788Z,20.42
2023-04-10T14:10:24.494Z,20.35
2023-04-10T14:12:53.569Z,20.27
2023-04-10T14:15:21.287Z,20.43
2023-04-10T14:17:48.986Z,20.54
2023-04-10T14:20:16.711Z,20.48
2023-04-10T14:22:44.350Z,20.58
2023-04-10T14:25:15.713Z,20.18
2023-04-10T14:27:44.044Z,19.79
2023-04-10T14:30:13.796Z,19.88
2023-04-10T14:32:41.659Z,20.00
2023-04-10T14:35:10.633Z,20.10
2023-04-10T14:37:38.523Z,19.92
2023-04-10T14:40:07.498Z,19.76
2023-04-10T14:42:35.191Z,19.85
2023-04-10T14:45:03.104Z,19.69
2023-04-10T14:47:32.216Z,19.59
2023-04-10T14:49:59.961Z,19.51
2023-04-10T14:52:27.675Z,19.65
2023-04-10T14:54:55.421Z,19.22
2023-04-10T14:57:23.054Z,19.08
2023-04-10T14:59:50.762Z,18.98
2023-04-10T15:02:18.505Z,19.10
2023-04-10T15:04:47.682Z,19.14
2023-04-10T15:07:15.403Z,19.15
2023-04-10T15:09:44.463Z,19.07
2023-04-10T15:12:12.087Z,19.17
2023-04-10T15:14:39.829Z,19.18
2023-04-10T15:17:07.608Z,19.06
2023-04-10T15:19:35.480Z,18.83
2023-04-10T15:22:04.704Z,19.06
2023-04-10T15:24:39.896Z,18.99
2023-04-10T15:27:15.095Z,19.20
2023-04-10T15:29:43.967Z,19.08
2023-04-10T15:32:11.642Z,19.22
2023-04-10T15:34:39.330Z,19.35
2023-04-10T15:37:08.343Z,19.19
2023-04-10T15:39:37.110Z,19.24
2023-04-10T15:42:05.252Z,19.21
2023-04-10T15:44:33.003Z,19.27
2023-04-10T15:47:00.846Z,19.33
2023-04-10T15:49:37.057Z,19.27
2023-04-10T15:52:06.213Z,19.30
2023-04-10T15:54:35.868Z,19.32
2023-04-10T15:57:03.821Z,19.50
2023-04-10T15:59:31.837Z,19.63
2023-04-10T16:01:59.713Z,19.45
2023-04-10T16:04:27.591Z,19.55
2023-04-10T16:06:56.449Z,19.55
2023-04-10T16:09:26.401Z,19.46
2023-04-10T16:11:56.317Z,19.66
2023-04-10T16:14:24.081Z,19.73
2023-04-10T16:16:52.023Z,19.84
2023-04-10T16:19:19.819Z,19.68
2023-04-10T16:21:47.491Z,19.49
2023-04-10T16:24:15.469Z,19.20
2023-04-10T16:26:43.180Z,19.21
2023-04-10T16:29:12.202Z,18.83
2023-04-10T16:31:39.947Z,18.75
2023-04-10T16:34:07.655Z,18.68
2023-04-10T16:36:35.395Z,18.71
2023-04-10T16:39:03.118Z,18.79
2023-04-10T16:41:30.902Z,18.51
2023-04-10T16:43:58.566Z,18.23
2023-04-10T16:46:27.805Z,18.27
2023-04-10T16:48:55.659Z,18.32
2023-04-10T16:51:24.348Z,18.18
2023-04-10T16:53:52.110Z,18.26
2023-04-10T16:56:19.908Z,17.79
2023-04-10T16:58:47.588Z,17.49
2023-04-10T17:01:17.776Z,17.48
2023-04-10T17:03:47.537Z,17.01
2023-04-10T17:06:16.002Z,17.02
2023-04-10T17:08:43.951Z,16.94
2023-04-10T17:11:12.529Z,16.77
2023-04-10T17:13:40.542Z,16.62
2023-04-10T17:16:09.411Z,16.79
2023-04-10T17:18:37.569Z,16.70
2023-04-10T17:21:07.444Z,16.47
2023-04-10T17:23:35.218Z,16.32
2023-04-10T17:26:05.605Z,16.37
2023-04-10T17:28:33.809Z,16.43
2023-04-10T17:31:01.794Z,16.42
2023-04-10T17:33:29.630Z,16.16
2023-04-10T17:35:57.491Z,15.97
2023-04-10T17:38:26.693Z,16.09
2023-04-10T17:40:54.339Z,16.01
2023-04-10T17:43:22.606Z,15.87
2023-04-10T17:45:50.355Z,15.87
2023-04-10T17:48:18.424Z,15.82
2023-04-10T17:50:46.278Z,15.87
2023-04-10T17:53:14.026Z,15.85
2023-04-10T17:55:43.066Z,15.79
2023-04-10T17:58:10.793Z,15.76
2023-04-10T18:00:38.670Z,15.81
2023-04-10T18:03:06.447Z,15.69
2023-04-10T18:05:36.728Z,15.69
2023-04-10T18:08:04.466Z,15.65
2023-04-10T18:10:32.147Z,15.52
2023-04-10T18:13:01.278Z,15.67
2023-04-10T18:15:29.521Z,15.56
2023-04-10T18:17:57.313Z,15.65
2023-04-10T18:20:25.078Z,15.45
2023-04-10T18:22:52.837Z,15.61
2023-04-10T18:25:20.490Z,15.71
2023-04-10T18:28:09.772Z,15.59
2023-04-10T18:30:38.976Z,15.65
2023-04-10T18:33:10.709Z,15.26
2023-04-10T18:35:39.034Z,14.92
2023-04-10T18:38:06.797Z,15.06
2023-04-10T18:40:36.614Z,14.86
2023-04-10T18:43:04.307Z,14.76
2023-04-10T18:45:33.903Z,15.05
2023-04-10T18:48:03.030Z,14.75
2023-04-10T18:50:31.778Z,14.88
2023-04-10T18:52:59.432Z,14.73
2023-04-10T18:55:27.160Z,14.86
2023-04-10T18:57:55.117Z,14.64
2023-04-10T19:00:23.111Z,14.91
2023-04-10T19:02:51.023Z,14.80
2023-04-10T19:05:20.130Z,15.00
2023-04-10T19:08:00.622Z,14.86
2023-04-10T19:10:29.042Z,14.81
2023-04-10T19:12:57.368Z,14.94
2023-04-10T19:15:25.873Z,14.91
2023-04-10T19:17:54.129Z,14.85
2023-04-10T19:20:49.796Z,14.68
2023-04-10T19:23:11.768Z,14.87
2023-04-10T19:25:39.562Z,14.92
2023-04-10T19:28:07.489Z,14.73
2023-04-10T19:30:35.341Z,14.81
2023-04-10T19:33:03.071Z,14.75
2023-04-10T19:35:32.319Z,14.61
2023-04-10T19:38:00.138Z,14.67
2023-04-10T19:40:28.036Z,14.66
2023-04-10T19:42:57.455Z,14.53
2023-04-10T19:45:29.113Z,14.40
2023-04-10T19:47:57.431Z,14.52
2023-04-10T19:50:25.363Z,14.62
2023-04-10T19:52:54.385Z,14.67
2023-04-10T19:55:22.312Z,14.67
2023-04-10T19:57:50.654Z,14.60
2023-04-10T20:00:18.790Z,14.49
2023-04-10T20:02:46.645Z,14.70
2023-04-10T20:05:14.783Z,14.50
2023-04-10T20:07:42.574Z,14.64
2023-04-10T20:10:12.325Z,14.83
2023-04-10T20:12:40.030Z,14.96
2023-04-10T20:15:09.287Z,14.90
2023-04-10T20:17:38.490Z,14.95
2023-04-10T20:20:07.301Z,15.14
2023-04-10T20:22:34.974Z,14.67
2023-04-10T20:25:02.644Z,14.70
2023-04-10T20:27:31.660Z,14.73
2023-04-10T20:29:59.348Z,14.68
2023-04-10T20:32:27.029Z,14.62
2023-04-10T20:34:54.731Z,14.43
2023-04-10T20:37:22.873Z,14.68
2023-04-10T20:39:52.238Z,14.72
2023-04-10T20:42:19.978Z,14.65
2023-04-10T20:44:49.287Z,14.54
2023-04-10T20:47:16.987Z,14.52
2023-04-10T20:49:44.635Z,14.49
2023-04-10T20:52:12.375Z,14.43
2023-04-10T20:54:40.080Z,14.66
2023-04-10T20:57:07.948Z,14.70
2023-04-10T20:59:36.660Z,14.27
2023-04-10T21:02:05.934Z,14.37
2023-04-10T21:04:33.739Z,14.52
2023-04-10T21:07:01.518Z,14.56
2023-04-10T21:09:29.275Z,14.52
2023-04-10T21:11:57.684Z,14.36
2023-04-10T21:14:25.346Z,14.34
2023-04-10T21:16:53.050Z,14.35
2023-04-10T21:19:22.134Z,14.33
2023-04-10T21:21:49.871Z,14.15
2023-04-10T21:24:17.609Z,14.13
2023-04-10T21:26:45.785Z,14.19
2023-04-10T21:29:13.533Z,14.15
2023-04-10T21:31:41.335Z,14.20
2023-04-10T21:34:09.131Z,14.18
2023-04-10T21:36:39.029Z,14.19
2023-04-10T21:39:09.211Z,14.02
2023-04-10T21:41:37.315Z,13.93
2023-04-10T21:44:05.040Z,13.84
2023-04-10T21:46:33.158Z,14.09
2023-04-10T21:49:01.190Z,14.16
2023-04-10T21:51:29.121Z,14.10
2023-04-10T21:53:58.169Z,14.06
2023-04-10T21:56:25.934Z,14.07
2023-04-10T21:58:53.891Z,14.29
2023-04-10T22:01:21.863Z,14.02
2023-04-10T22:03:50.604Z,13.91
2023-04-10T22:06:18.608Z,13.87
2023-04-10T22:08:46.945Z,13.78
2023-04-10T22:11:16.007Z,13.72
2023-04-10T22:13:43.747Z,13.76
2023-04-10T22:16:11.475Z,13.89
2023-04-10T22:18:39.278Z,13.98
2023-04-10T22:21:07.447Z,14.04
2023-04-10T22:23:35.148Z,14.07
2023-04-10T22:26:02.830Z,14.10
2023-04-10T22:28:31.892Z,14.02
2023-04-10T22:30:59.699Z,13.93
2023-04-10T22:33:27.577Z,14.17
2023-04-10T22:35:55.379Z,14.16
2023-04-10T22:38:23.129Z,13.91
2023-04-10T22:40:50.862Z,13.72
2023-04-10T22:43:18.634Z,13.70
2023-04-10T22:45:47.909Z,13.80
2023-04-10T22:48:15.711Z,13.65
2023-04-10T22:50:43.503Z,13.67
2023-04-10T22:53:11.685Z,13.78
2023-04-10T22:55:39.407Z,13.62
2023-04-10T22:58:07.346Z,13.68
2023-04-10T23:00:35.346Z,13.53
2023-04-10T23:03:04.733Z,13.46
2023-04-10T23:05:33.023Z,13.54
2023-04-10T23:08:00.831Z,13.44
2023-04-10T23:10:28.572Z,13.20
2023-04-10T23:12:56.346Z,13.24
2023-04-10T23:15:24.085Z,13.50
2023-04-10T23:17:51.828Z,13.42
2023-04-10T23:20:21.001Z,13.64
2023-04-10T23:22:48.675Z,13.74
2023-04-10T23:25:16.502Z,13.88
2023-04-10T23:27:44.313Z,13.52
2023-04-10T23:30:12.573Z,13.71
2023-04-10T23:32:40.374Z,13.40
2023-04-10T23:35:08.530Z,13.60
2023-04-10T23:37:37.743Z,11.80
2023-04-10T23:40:06.168Z,10.54
2023-04-10T23:42:33.815Z,9.94
2023-04-10T23:45:01.585Z,9.53
2023-04-10T23:47:29.345Z,9.15
2023-04-10T23:49:57.111Z,8.88
2023-04-10T23:52:24.794Z,8.77
2023-04-10T23:54:56.517Z,9.01
2023-04-10T23:57:24.397Z,8.84
2023-04-10T23:59:52.265Z,9.13
